地図

経路データ

SID SEASON NUMBER BASIN SUBBASIN NAME ISO_TIME NATURE LAT LON WMO_WIND WMO_PRES WMO_AGENCY TRACK_TYPE DIST2LAND LANDFALL IFLAG USA_AGENCY USA_ATCF_ID USA_LAT USA_LON USA_RECORD USA_STATUS USA_WIND USA_PRES USA_SSHS USA_R34_NE USA_R34_SE USA_R34_SW USA_R34_NW USA_R50_NE USA_R50_SE USA_R50_SW USA_R50_NW USA_R64_NE USA_R64_SE USA_R64_SW USA_R64_NW USA_POCI USA_ROCI USA_RMW USA_EYE TOKYO_LAT TOKYO_LON TOKYO_GRADE TOKYO_WIND TOKYO_PRES TOKYO_R50_DIR TOKYO_R50_LONG TOKYO_R50_SHORT TOKYO_R30_DIR TOKYO_R30_LONG TOKYO_R30_SHORT TOKYO_LAND CMA_LAT CMA_LON CMA_CAT CMA_WIND CMA_PRES HKO_LAT HKO_LON HKO_CAT HKO_WIND HKO_PRES NEWDELHI_LAT NEWDELHI_LON NEWDELHI_GRADE NEWDELHI_WIND NEWDELHI_PRES NEWDELHI_CI NEWDELHI_DP NEWDELHI_POCI REUNION_LAT REUNION_LON REUNION_TYPE REUNION_WIND REUNION_PRES REUNION_TNUM REUNION_CI REUNION_RMW REUNION_R34_NE REUNION_R34_SE REUNION_R34_SW REUNION_R34_NW REUNION_R50_NE REUNION_R50_SE REUNION_R50_SW REUNION_R50_NW REUNION_R64_NE REUNION_R64_SE REUNION_R64_SW REUNION_R64_NW BOM_LAT BOM_LON BOM_TYPE BOM_WIND BOM_PRES BOM_TNUM BOM_CI BOM_RMW BOM_R34_NE BOM_R34_SE BOM_R34_SW BOM_R34_NW BOM_R50_NE BOM_R50_SE BOM_R50_SW BOM_R50_NW BOM_R64_NE BOM_R64_SE BOM_R64_SW BOM_R64_NW BOM_ROCI BOM_POCI BOM_EYE BOM_POS_METHOD BOM_PRES_METHOD NADI_LAT NADI_LON NADI_CAT NADI_WIND NADI_PRES WELLINGTON_LAT WELLINGTON_LON WELLINGTON_WIND WELLINGTON_PRES DS824_LAT DS824_LON DS824_STAGE DS824_WIND DS824_PRES TD9636_LAT TD9636_LON TD9636_STAGE TD9636_WIND TD9636_PRES TD9635_LAT TD9635_LON TD9635_WIND TD9635_PRES TD9635_ROCI NEUMANN_LAT NEUMANN_LON NEUMANN_CLASS NEUMANN_WIND NEUMANN_PRES MLC_LAT MLC_LON MLC_CLASS MLC_WIND MLC_PRES USA_GUST BOM_GUST BOM_GUST_PER REUNION_GUST REUNION_GUST_PER USA_SEAHGT USA_SEARAD_NE USA_SEARAD_SE USA_SEARAD_SW USA_SEARAD_NW STORM_SPEED STORM_DIR
1853268N27293 1853 14 NA NA NOT_NAMED 1853-09-24 12:00:00 TS 26.5000 -67.5000 main 812 812 _____________O -1 26.5000 -67.5000 TS 35 7 345
1853268N27293 1853 14 NA NA NOT_NAMED 1853-09-24 15:00:00 TS 26.8600 -67.6073 main 840 840 _____________P -1 26.8600 -67.6073 TS 35 7 346
1853268N27293 1853 14 NA NA NOT_NAMED 1853-09-24 18:00:00 TS 27.2000 -67.7000 main 858 858 _____________O -1 27.2000 -67.7000 TS 35 7 347
1853268N27293 1853 14 NA NA NOT_NAMED 1853-09-24 21:00:00 TS 27.5075 -67.7650 main 878 878 _____________P -1 27.5075 -67.7650 TS 37 6 352
1853268N27293 1853 14 NA NA NOT_NAMED 1853-09-25 00:00:00 TS 27.8000 -67.8000 main 905 905 _____________O -1 27.8000 -67.8000 TS 40 6 357
1853268N27293 1853 14 NA NA NOT_NAMED 1853-09-25 03:00:00 TS 28.1000 -67.8150 main 932 932 _____________P -1 28.1000 -67.8150 TS 40 6 1
1853268N27293 1853 14 NA NA NOT_NAMED 1853-09-25 06:00:00 TS 28.4000 -67.8000 main 960 960 _____________O -1 28.4000 -67.8000 TS 40 6 6
1853268N27293 1853 14 NA NA NOT_NAMED 1853-09-25 09:00:00 TS 28.7150 -67.7501 main 987 987 _____________P -1 28.7150 -67.7501 TS 42 6 8
1853268N27293 1853 14 NA NA NOT_NAMED 1853-09-25 12:00:00 TS 29.0000 -67.7000 main 1021 1021 _____________O -1 29.0000 -67.7000 TS 45 5 5
1853268N27293 1853 14 NA NA NOT_NAMED 1853-09-25 15:00:00 TS 29.2225 -67.7074 main 1028 1013 _____________P -1 29.2225 -67.7074 TS 45 4 0
1853268N27293 1853 14 NA NA NOT_NAMED 1853-09-25 18:00:00 TS 29.4000 -67.7000 main 1013 1006 _____________O -1 29.4000 -67.7000 TS 45 3 0
1853268N27293 1853 14 NA NA NOT_NAMED 1853-09-25 21:00:00 TS 29.5341 -67.7266 main 1006 999 _____________P -1 29.5341 -67.7266 TS 47 3 30
1853268N27293 1853 14 NA NA NOT_NAMED 1853-09-26 00:00:00 TS 29.7000 -67.5000 main 1008 1008 _____________O -1 29.7000 -67.5000 TS 50 9 61
1853268N27293 1853 14 NA NA NOT_NAMED 1853-09-26 03:00:00 TS 29.9858 -66.7708 main 1036 1036 _____________P -1 29.9858 -66.7708 TS 50 16 68
1853268N27293 1853 14 NA NA NOT_NAMED 1853-09-26 06:00:00 TS 30.3000 -65.8000 main 1090 1090 _____________O -1 30.3000 -65.8000 TS 50 17 71
1853268N27293 1853 14 NA NA NOT_NAMED 1853-09-26 09:00:00 TS 30.5272 -64.8986 main 1147 1147 _____________P -1 30.5272 -64.8986 TS 52 16 72
1853268N27293 1853 14 NA NA NOT_NAMED 1853-09-26 12:00:00 TS 30.8000 -64.0000 main 1202 1202 _____________O -1 30.8000 -64.0000 TS 55 17 65
1853268N27293 1853 14 NA NA NOT_NAMED 1853-09-26 15:00:00 TS 31.2193 -63.1424 main 1255 1255 _____________P -1 31.2193 -63.1424 TS 57 17 58
1853268N27293 1853 14 NA NA NOT_NAMED 1853-09-26 18:00:00 TS 31.7000 -62.3000 main 1299 1299 _____________O -1 31.7000 -62.3000 TS 60 17 57
1853268N27293 1853 14 NA NA NOT_NAMED 1853-09-26 21:00:00 TS 32.1569 -61.4494 main 1302 1277 _____________P -1 32.1569 -61.4494 TS 60 17 58
1853268N27293 1853 14 NA NA NOT_NAMED 1853-09-27 00:00:00 TS 32.6000 -60.6000 main 1280 1262 _____________O -1 32.6000 -60.6000 TS 60 17 59
1853268N27293 1853 14 NA NA NOT_NAMED 1853-09-27 03:00:00 TS 33.0071 -59.7416 main 1265 1249 _____________P -1 33.0071 -59.7416 TS 62 16 61
1853268N27293 1853 14 NA NA NOT_NAMED 1853-09-27 06:00:00 TS 33.4000 -58.9000 main 1253 1241 _____________O -1 33.4000 -58.9000 HU 65 17 60
1853268N27293 1853 14 NA NA NOT_NAMED 1853-09-27 09:00:00 TS 33.8379 -58.0258 main 1250 1238 _____________P -1 33.8379 -58.0258 HU 65 16 59
1853268N27293 1853 14 NA NA NOT_NAMED 1853-09-27 12:00:00 TS 34.2000 -57.3000 main 1243 1238 _____________O -1 34.2000 -57.3000 HU 65 11 60
1853268N27293 1853 14 NA NA NOT_NAMED 1853-09-27 15:00:00 TS 34.3941 -56.8738 main 1243 1243 _____________P -1 34.3941 -56.8738 HU 65 7 63
1853268N27293 1853 14 NA NA NOT_NAMED 1853-09-27 18:00:00 TS 34.5000 -56.6000 main 1249 1245 _____________O -1 34.5000 -56.6000 HU 65 5 67
1853268N27293 1853 14 NA NA NOT_NAMED 1853-09-27 21:00:00 TS 34.5999 -56.2922 main 1247 1242 _____________P -1 34.5999 -56.2922 HU 65 5 68
1853268N27293 1853 14 NA NA NOT_NAMED 1853-09-28 00:00:00 TS 34.7000 -56.0000 main 1245 1238 _____________O -1 34.7000 -56.0000 HU 65 5 63
1853268N27293 1853 14 NA NA NOT_NAMED 1853-09-28 03:00:00 TS 34.8499 -55.7001 main 1244 1229 _____________P -1 34.8499 -55.7001 HU 65 6 59
1853268N27293 1853 14 NA NA NOT_NAMED 1853-09-28 06:00:00 TS 35.0000 -55.4000 main 1232 1225 _____________O -1 35.0000 -55.4000 HU 65 5 60
1853268N27293 1853 14 NA NA NOT_NAMED 1853-09-28 09:00:00 TS 35.1067 -55.1671 main 1229 1225 _____________P -1 35.1067 -55.1671 HU 65 5 68
1853268N27293 1853 14 NA NA NOT_NAMED 1853-09-28 12:00:00 TS 35.2000 -54.8000 main 1233 1233 _____________O -1 35.2000 -54.8000 HU 65 9 78
1853268N27293 1853 14 NA NA NOT_NAMED 1853-09-28 15:00:00 TS 35.2854 -54.1245 main 1249 1246 _____________P -1 35.2854 -54.1245 HU 65 12 81
1853268N27293 1853 14 NA NA NOT_NAMED 1853-09-28 18:00:00 TS 35.4000 -53.3000 main 1246 1224 _____________O -1 35.4000 -53.3000 HU 65 13 77
1853268N27293 1853 14 NA NA NOT_NAMED 1853-09-28 21:00:00 TS 35.5838 -52.5447 main 1225 1206 _____________P -1 35.5838 -52.5447 HU 65 14 73
1853268N27293 1853 14 NA NA NOT_NAMED 1853-09-29 00:00:00 TS 35.8000 -51.7000 main 1207 1194 _____________O -1 35.8000 -51.7000 HU 65 16 75
1853268N27293 1853 14 NA NA NOT_NAMED 1853-09-29 03:00:00 TS 35.9925 -50.6869 main 1197 1190 _____________P -1 35.9925 -50.6869 HU 65 17 77
1853268N27293 1853 14 NA NA NOT_NAMED 1853-09-29 06:00:00 TS 36.2000 -49.6000 main 1194 1188 _____________O -1 36.2000 -49.6000 HU 65 18 75
1853268N27293 1853 14 NA NA NOT_NAMED 1853-09-29 09:00:00 TS 36.4420 -48.5348 main 1199 1188 _____________P -1 36.4420 -48.5348 HU 62 18 74
1853268N27293 1853 14 NA NA NOT_NAMED 1853-09-29 12:00:00 ET 36.7000 -47.5000 main 1197 1193 _____________O -1 36.7000 -47.5000 EX 60 17 72
1853268N27293 1853 14 NA NA NOT_NAMED 1853-09-29 15:00:00 ET 36.9537 -46.5310 main 1201 1201 _____________P -1 36.9537 -46.5310 EX 55 16 72
1853268N27293 1853 14 NA NA NOT_NAMED 1853-09-29 18:00:00 ET 37.2000 -45.6000 main 1217 _____________O -1 37.2000 -45.6000 EX 50 16 72

IBTrACS Databaseについて

本データベースは、米国NOAAが公開する1842年以降の世界の熱帯低気圧のベストトラックデータアーカイブInternational Best Track Archive for Climate Stewardship (IBTrACS)を、ウェブで閲覧しやすい形式に変換したものです。

最終更新日:2021-11-26